Bonita, California
Current Conditions -  °F | °C
As of 3:53 AM on Sunday 23 Nov 2014 (Local Time) from KSDM Reporting Station
Clear Clear  
Wind Chill: 50°   Ceiling: Unl
Heat Index: 50°   Visibility: 10mi
Dew Point: 46°   Wind: 7mph
Humidity: 86%   Direction: 110°ESE
Pressure: 30.03"   Gusts: NA
Location:  32.67°N, 117.01°W
Report Text: KSDM 231153Z AUTO 11006KT 10SM CLR 10/08 A3003 RMK AO2 SLP166 T01000078 10139 20089 56003 $
Loading
Personal Weather Stations






























Interactive Weather Map New forecast layout! Learn more

10-Day Weather Forecast

Advertisements
Track Severe Weather on mobile